sensor_id;sensor_type;location;lat;lon;timestamp;P1;durP1;ratioP1;P2;durP2;ratioP2
14599;SDS011;7386;45.586;12.854;2023-01-15T00:01:50;54.10;;;39.47;;
14599;SDS011;7386;45.586;12.854;2023-01-15T00:04:19;54.80;;;39.37;;
14599;SDS011;7386;45.586;12.854;2023-01-15T00:06:47;50.43;;;39.70;;
14599;SDS011;7386;45.586;12.854;2023-01-15T00:09:17;50.73;;;37.40;;
14599;SDS011;7386;45.586;12.854;2023-01-15T00:11:46;52.10;;;39.67;;
14599;SDS011;7386;45.586;12.854;2023-01-15T00:14:14;51.97;;;38.67;;
14599;SDS011;7386;45.586;12.854;2023-01-15T00:16:43;56.93;;;39.93;;
14599;SDS011;7386;45.586;12.854;2023-01-15T00:19:11;52.17;;;37.53;;
14599;SDS011;7386;45.586;12.854;2023-01-15T00:21:40;53.70;;;39.20;;
14599;SDS011;7386;45.586;12.854;2023-01-15T00:24:08;50.80;;;37.53;;
14599;SDS011;7386;45.586;12.854;2023-01-15T00:26:56;54.67;;;38.30;;
14599;SDS011;7386;45.586;12.854;2023-01-15T00:29:42;51.23;;;37.93;;
14599;SDS011;7386;45.586;12.854;2023-01-15T00:32:11;49.57;;;37.00;;
14599;SDS011;7386;45.586;12.854;2023-01-15T00:34:39;52.37;;;38.47;;
14599;SDS011;7386;45.586;12.854;2023-01-15T00:37:07;51.80;;;39.10;;
14599;SDS011;7386;45.586;12.854;2023-01-15T00:39:36;48.90;;;36.83;;
14599;SDS011;7386;45.586;12.854;2023-01-15T00:42:06;49.83;;;36.87;;
14599;SDS011;7386;45.586;12.854;2023-01-15T00:44:34;50.07;;;38.07;;
14599;SDS011;7386;45.586;12.854;2023-01-15T00:47:03;53.70;;;38.53;;
14599;SDS011;7386;45.586;12.854;2023-01-15T00:49:34;53.17;;;39.67;;
14599;SDS011;7386;45.586;12.854;2023-01-15T00:52:03;52.23;;;38.60;;
14599;SDS011;7386;45.586;12.854;2023-01-15T00:54:31;52.90;;;38.10;;
14599;SDS011;7386;45.586;12.854;2023-01-15T00:56:59;51.73;;;38.87;;
14599;SDS011;7386;45.586;12.854;2023-01-15T00:59:29;49.70;;;36.67;;
14599;SDS011;7386;45.586;12.854;2023-01-15T01:01:58;49.67;;;36.97;;
14599;SDS011;7386;45.586;12.854;2023-01-15T01:04:26;49.80;;;37.30;;
14599;SDS011;7386;45.586;12.854;2023-01-15T01:06:55;50.90;;;39.27;;
14599;SDS011;7386;45.586;12.854;2023-01-15T01:09:23;54.33;;;39.23;;
14599;SDS011;7386;45.586;12.854;2023-01-15T01:11:52;54.63;;;39.07;;
14599;SDS011;7386;45.586;12.854;2023-01-15T01:14:20;50.13;;;39.10;;
14599;SDS011;7386;45.586;12.854;2023-01-15T01:16:50;51.77;;;39.47;;
14599;SDS011;7386;45.586;12.854;2023-01-15T01:19:20;52.97;;;39.33;;
14599;SDS011;7386;45.586;12.854;2023-01-15T01:21:49;55.13;;;39.70;;
14599;SDS011;7386;45.586;12.854;2023-01-15T01:24:18;52.80;;;37.90;;
14599;SDS011;7386;45.586;12.854;2023-01-15T01:26:47;49.87;;;38.23;;
14599;SDS011;7386;45.586;12.854;2023-01-15T01:29:20;50.23;;;37.47;;
14599;SDS011;7386;45.586;12.854;2023-01-15T01:31:49;51.83;;;38.63;;
14599;SDS011;7386;45.586;12.854;2023-01-15T01:34:19;46.17;;;36.80;;
14599;SDS011;7386;45.586;12.854;2023-01-15T01:36:47;50.10;;;38.03;;
14599;SDS011;7386;45.586;12.854;2023-01-15T01:39:17;50.10;;;37.80;;
14599;SDS011;7386;45.586;12.854;2023-01-15T01:41:45;52.73;;;39.17;;
14599;SDS011;7386;45.586;12.854;2023-01-15T01:47:02;49.23;;;37.90;;
14599;SDS011;7386;45.586;12.854;2023-01-15T01:49:34;48.53;;;36.77;;
14599;SDS011;7386;45.586;12.854;2023-01-15T01:52:04;51.63;;;38.20;;
14599;SDS011;7386;45.586;12.854;2023-01-15T01:54:34;48.63;;;36.50;;
14599;SDS011;7386;45.586;12.854;2023-01-15T01:57:03;49.47;;;37.60;;
14599;SDS011;7386;45.586;12.854;2023-01-15T01:59:32;50.03;;;39.47;;
14599;SDS011;7386;45.586;12.854;2023-01-15T02:02:00;49.63;;;38.50;;
14599;SDS011;7386;45.586;12.854;2023-01-15T02:04:29;54.53;;;40.80;;
14599;SDS011;7386;45.586;12.854;2023-01-15T02:06:59;52.33;;;39.43;;
14599;SDS011;7386;45.586;12.854;2023-01-15T02:09:28;54.50;;;40.70;;
14599;SDS011;7386;45.586;12.854;2023-01-15T02:11:59;52.03;;;38.80;;
14599;SDS011;7386;45.586;12.854;2023-01-15T02:14:30;51.10;;;38.27;;
14599;SDS011;7386;45.586;12.854;2023-01-15T02:17:04;48.80;;;37.03;;
14599;SDS011;7386;45.586;12.854;2023-01-15T02:19:39;51.60;;;37.87;;
14599;SDS011;7386;45.586;12.854;2023-01-15T02:22:17;53.63;;;37.40;;
14599;SDS011;7386;45.586;12.854;2023-01-15T02:24:49;50.50;;;37.57;;
14599;SDS011;7386;45.586;12.854;2023-01-15T02:27:25;49.33;;;37.00;;
14599;SDS011;7386;45.586;12.854;2023-01-15T02:29:55;49.03;;;37.37;;
14599;SDS011;7386;45.586;12.854;2023-01-15T02:32:27;47.40;;;35.20;;
14599;SDS011;7386;45.586;12.854;2023-01-15T02:34:58;45.53;;;35.53;;
14599;SDS011;7386;45.586;12.854;2023-01-15T02:37:29;49.10;;;36.40;;
14599;SDS011;7386;45.586;12.854;2023-01-15T02:40:00;48.73;;;34.23;;
14599;SDS011;7386;45.586;12.854;2023-01-15T02:42:31;45.07;;;34.53;;
14599;SDS011;7386;45.586;12.854;2023-01-15T02:45:01;44.43;;;34.17;;
14599;SDS011;7386;45.586;12.854;2023-01-15T02:47:32;45.60;;;34.63;;
14599;SDS011;7386;45.586;12.854;2023-01-15T02:50:02;43.13;;;33.70;;
14599;SDS011;7386;45.586;12.854;2023-01-15T02:52:32;45.13;;;33.60;;
14599;SDS011;7386;45.586;12.854;2023-01-15T02:55:03;44.10;;;33.00;;
14599;SDS011;7386;45.586;12.854;2023-01-15T02:57:34;42.33;;;32.60;;
14599;SDS011;7386;45.586;12.854;2023-01-15T03:00:06;41.93;;;33.83;;
14599;SDS011;7386;45.586;12.854;2023-01-15T03:02:38;43.33;;;33.33;;
14599;SDS011;7386;45.586;12.854;2023-01-15T03:05:07;41.83;;;32.27;;
14599;SDS011;7386;45.586;12.854;2023-01-15T03:07:36;43.17;;;31.93;;
14599;SDS011;7386;45.586;12.854;2023-01-15T03:10:09;43.27;;;31.70;;
14599;SDS011;7386;45.586;12.854;2023-01-15T03:12:42;39.57;;;30.57;;
14599;SDS011;7386;45.586;12.854;2023-01-15T03:15:34;40.07;;;30.70;;
14599;SDS011;7386;45.586;12.854;2023-01-15T03:18:17;39.27;;;29.77;;
14599;SDS011;7386;45.586;12.854;2023-01-15T03:20:48;40.60;;;30.77;;
14599;SDS011;7386;45.586;12.854;2023-01-15T03:23:18;40.90;;;29.70;;
14599;SDS011;7386;45.586;12.854;2023-01-15T03:25:49;38.17;;;30.10;;
14599;SDS011;7386;45.586;12.854;2023-01-15T03:28:20;36.97;;;29.20;;
14599;SDS011;7386;45.586;12.854;2023-01-15T03:30:51;39.57;;;30.00;;
14599;SDS011;7386;45.586;12.854;2023-01-15T03:33:19;36.73;;;28.60;;
14599;SDS011;7386;45.586;12.854;2023-01-15T03:35:49;37.53;;;28.57;;
14599;SDS011;7386;45.586;12.854;2023-01-15T03:38:19;37.73;;;27.80;;
14599;SDS011;7386;45.586;12.854;2023-01-15T03:40:52;36.73;;;28.73;;
14599;SDS011;7386;45.586;12.854;2023-01-15T03:43:23;36.50;;;27.43;;
14599;SDS011;7386;45.586;12.854;2023-01-15T03:46:14;36.50;;;28.23;;
14599;SDS011;7386;45.586;12.854;2023-01-15T03:48:49;37.07;;;28.33;;
14599;SDS011;7386;45.586;12.854;2023-01-15T03:51:19;37.70;;;28.40;;
14599;SDS011;7386;45.586;12.854;2023-01-15T03:53:51;37.93;;;28.53;;
14599;SDS011;7386;45.586;12.854;2023-01-15T03:56:22;38.07;;;27.60;;
14599;SDS011;7386;45.586;12.854;2023-01-15T03:58:55;35.40;;;27.57;;
14599;SDS011;7386;45.586;12.854;2023-01-15T04:01:27;34.80;;;27.63;;
14599;SDS011;7386;45.586;12.854;2023-01-15T04:03:58;32.00;;;25.37;;
14599;SDS011;7386;45.586;12.854;2023-01-15T04:06:27;35.40;;;26.10;;
14599;SDS011;7386;45.586;12.854;2023-01-15T04:08:56;35.37;;;27.03;;
14599;SDS011;7386;45.586;12.854;2023-01-15T04:11:25;39.07;;;27.37;;
14599;SDS011;7386;45.586;12.854;2023-01-15T04:13:55;34.27;;;26.23;;
14599;SDS011;7386;45.586;12.854;2023-01-15T04:16:24;33.73;;;26.63;;
14599;SDS011;7386;45.586;12.854;2023-01-15T04:18:53;32.53;;;24.60;;
14599;SDS011;7386;45.586;12.854;2023-01-15T04:21:21;33.03;;;25.33;;
14599;SDS011;7386;45.586;12.854;2023-01-15T04:23:50;35.27;;;26.43;;
14599;SDS011;7386;45.586;12.854;2023-01-15T04:26:19;33.60;;;25.63;;
14599;SDS011;7386;45.586;12.854;2023-01-15T04:28:47;33.47;;;25.07;;
14599;SDS011;7386;45.586;12.854;2023-01-15T04:31:17;31.47;;;24.30;;
14599;SDS011;7386;45.586;12.854;2023-01-15T04:33:46;33.20;;;25.10;;
14599;SDS011;7386;45.586;12.854;2023-01-15T04:36:14;32.27;;;24.67;;
14599;SDS011;7386;45.586;12.854;2023-01-15T04:38:43;30.63;;;24.17;;
14599;SDS011;7386;45.586;12.854;2023-01-15T04:41:11;31.33;;;24.97;;
14599;SDS011;7386;45.586;12.854;2023-01-15T04:43:57;34.17;;;24.80;;
14599;SDS011;7386;45.586;12.854;2023-01-15T04:46:37;30.53;;;23.73;;
14599;SDS011;7386;45.586;12.854;2023-01-15T04:49:07;29.30;;;22.93;;
14599;SDS011;7386;45.586;12.854;2023-01-15T04:51:38;29.50;;;23.87;;
14599;SDS011;7386;45.586;12.854;2023-01-15T04:54:06;28.67;;;22.43;;
14599;SDS011;7386;45.586;12.854;2023-01-15T04:56:36;31.53;;;23.80;;
14599;SDS011;7386;45.586;12.854;2023-01-15T04:59:05;35.00;;;26.57;;
14599;SDS011;7386;45.586;12.854;2023-01-15T05:01:33;33.47;;;26.30;;
14599;SDS011;7386;45.586;12.854;2023-01-15T05:04:04;34.20;;;26.67;;
14599;SDS011;7386;45.586;12.854;2023-01-15T05:06:33;34.17;;;26.90;;
14599;SDS011;7386;45.586;12.854;2023-01-15T05:09:02;35.80;;;26.63;;
14599;SDS011;7386;45.586;12.854;2023-01-15T05:11:30;35.60;;;25.97;;
14599;SDS011;7386;45.586;12.854;2023-01-15T05:14:01;34.10;;;26.43;;
14599;SDS011;7386;45.586;12.854;2023-01-15T05:16:30;32.23;;;25.90;;
14599;SDS011;7386;45.586;12.854;2023-01-15T05:18:59;31.27;;;24.40;;
14599;SDS011;7386;45.586;12.854;2023-01-15T05:21:30;33.93;;;25.13;;
14599;SDS011;7386;45.586;12.854;2023-01-15T05:23:59;33.10;;;23.60;;
14599;SDS011;7386;45.586;12.854;2023-01-15T05:26:29;31.87;;;24.60;;
14599;SDS011;7386;45.586;12.854;2023-01-15T05:28:58;32.97;;;24.23;;
14599;SDS011;7386;45.586;12.854;2023-01-15T05:31:27;30.33;;;21.93;;
14599;SDS011;7386;45.586;12.854;2023-01-15T05:33:56;32.60;;;23.77;;
14599;SDS011;7386;45.586;12.854;2023-01-15T05:36:26;32.07;;;24.97;;
14599;SDS011;7386;45.586;12.854;2023-01-15T05:38:56;33.13;;;24.50;;
14599;SDS011;7386;45.586;12.854;2023-01-15T05:41:28;30.83;;;24.07;;
14599;SDS011;7386;45.586;12.854;2023-01-15T05:44:16;31.20;;;23.47;;
14599;SDS011;7386;45.586;12.854;2023-01-15T05:46:45;29.43;;;22.83;;
14599;SDS011;7386;45.586;12.854;2023-01-15T05:49:15;28.23;;;22.17;;
14599;SDS011;7386;45.586;12.854;2023-01-15T05:51:44;26.53;;;21.00;;
14599;SDS011;7386;45.586;12.854;2023-01-15T05:54:15;31.77;;;24.10;;
14599;SDS011;7386;45.586;12.854;2023-01-15T05:56:44;29.90;;;21.97;;
14599;SDS011;7386;45.586;12.854;2023-01-15T05:59:14;28.80;;;22.73;;
14599;SDS011;7386;45.586;12.854;2023-01-15T06:01:43;32.50;;;24.53;;
14599;SDS011;7386;45.586;12.854;2023-01-15T06:04:11;35.67;;;25.30;;
14599;SDS011;7386;45.586;12.854;2023-01-15T06:06:41;29.10;;;22.87;;
14599;SDS011;7386;45.586;12.854;2023-01-15T06:09:10;29.03;;;22.17;;
14599;SDS011;7386;45.586;12.854;2023-01-15T06:11:39;29.37;;;22.27;;
14599;SDS011;7386;45.586;12.854;2023-01-15T06:14:08;26.30;;;20.53;;
14599;SDS011;7386;45.586;12.854;2023-01-15T06:16:37;27.40;;;21.07;;
14599;SDS011;7386;45.586;12.854;2023-01-15T06:19:07;26.83;;;21.03;;
14599;SDS011;7386;45.586;12.854;2023-01-15T06:21:36;27.37;;;20.77;;
14599;SDS011;7386;45.586;12.854;2023-01-15T06:24:05;27.03;;;21.03;;
14599;SDS011;7386;45.586;12.854;2023-01-15T06:26:33;27.03;;;20.67;;
14599;SDS011;7386;45.586;12.854;2023-01-15T06:29:03;27.57;;;20.70;;
14599;SDS011;7386;45.586;12.854;2023-01-15T06:31:32;28.13;;;20.80;;
14599;SDS011;7386;45.586;12.854;2023-01-15T06:34:01;26.73;;;18.80;;
14599;SDS011;7386;45.586;12.854;2023-01-15T06:36:29;26.93;;;18.80;;
14599;SDS011;7386;45.586;12.854;2023-01-15T06:38:58;26.77;;;18.53;;
14599;SDS011;7386;45.586;12.854;2023-01-15T06:41:29;21.97;;;17.37;;
14599;SDS011;7386;45.586;12.854;2023-01-15T06:44:17;22.70;;;16.90;;
14599;SDS011;7386;45.586;12.854;2023-01-15T06:47:11;20.47;;;15.90;;
14599;SDS011;7386;45.586;12.854;2023-01-15T06:49:51;19.60;;;14.87;;
14599;SDS011;7386;45.586;12.854;2023-01-15T06:52:19;17.73;;;13.83;;
14599;SDS011;7386;45.586;12.854;2023-01-15T06:54:48;17.40;;;13.47;;
14599;SDS011;7386;45.586;12.854;2023-01-15T06:57:17;21.83;;;14.63;;
14599;SDS011;7386;45.586;12.854;2023-01-15T06:59:47;19.33;;;14.47;;
14599;SDS011;7386;45.586;12.854;2023-01-15T07:02:16;18.30;;;14.93;;
14599;SDS011;7386;45.586;12.854;2023-01-15T07:04:44;19.60;;;14.40;;
14599;SDS011;7386;45.586;12.854;2023-01-15T07:07:14;19.23;;;14.10;;
14599;SDS011;7386;45.586;12.854;2023-01-15T07:09:43;22.80;;;17.30;;
14599;SDS011;7386;45.586;12.854;2023-01-15T07:12:12;19.47;;;16.47;;
14599;SDS011;7386;45.586;12.854;2023-01-15T07:14:41;27.27;;;19.20;;
14599;SDS011;7386;45.586;12.854;2023-01-15T07:17:11;24.07;;;18.90;;
14599;SDS011;7386;45.586;12.854;2023-01-15T07:19:39;21.97;;;18.03;;
14599;SDS011;7386;45.586;12.854;2023-01-15T07:22:08;28.10;;;19.90;;
14599;SDS011;7386;45.586;12.854;2023-01-15T07:24:37;22.27;;;18.27;;
14599;SDS011;7386;45.586;12.854;2023-01-15T07:27:06;24.43;;;18.20;;
14599;SDS011;7386;45.586;12.854;2023-01-15T07:29:34;24.63;;;18.80;;
14599;SDS011;7386;45.586;12.854;2023-01-15T07:32:03;24.97;;;17.27;;
14599;SDS011;7386;45.586;12.854;2023-01-15T07:34:33;23.30;;;16.63;;
14599;SDS011;7386;45.586;12.854;2023-01-15T07:37:01;23.30;;;17.23;;
14599;SDS011;7386;45.586;12.854;2023-01-15T07:39:30;20.20;;;16.30;;
14599;SDS011;7386;45.586;12.854;2023-01-15T07:41:58;20.57;;;16.17;;
14599;SDS011;7386;45.586;12.854;2023-01-15T07:44:44;22.47;;;16.57;;
14599;SDS011;7386;45.586;12.854;2023-01-15T07:47:31;18.13;;;14.60;;
14599;SDS011;7386;45.586;12.854;2023-01-15T07:50:19;20.67;;;16.20;;
14599;SDS011;7386;45.586;12.854;2023-01-15T07:52:48;22.30;;;17.27;;
14599;SDS011;7386;45.586;12.854;2023-01-15T07:55:18;20.07;;;15.30;;
14599;SDS011;7386;45.586;12.854;2023-01-15T07:57:47;21.07;;;16.93;;
14599;SDS011;7386;45.586;12.854;2023-01-15T08:00:18;20.97;;;16.40;;
14599;SDS011;7386;45.586;12.854;2023-01-15T08:02:47;17.03;;;14.30;;
14599;SDS011;7386;45.586;12.854;2023-01-15T08:05:16;20.00;;;16.20;;
14599;SDS011;7386;45.586;12.854;2023-01-15T08:07:46;19.10;;;16.03;;
14599;SDS011;7386;45.586;12.854;2023-01-15T08:10:16;18.83;;;15.00;;
14599;SDS011;7386;45.586;12.854;2023-01-15T08:12:45;21.90;;;16.47;;
14599;SDS011;7386;45.586;12.854;2023-01-15T08:15:36;22.87;;;16.80;;
14599;SDS011;7386;45.586;12.854;2023-01-15T08:18:05;16.30;;;13.27;;
14599;SDS011;7386;45.586;12.854;2023-01-15T08:20:34;22.67;;;16.70;;
14599;SDS011;7386;45.586;12.854;2023-01-15T08:23:04;21.40;;;17.07;;
14599;SDS011;7386;45.586;12.854;2023-01-15T08:25:32;18.13;;;14.73;;
14599;SDS011;7386;45.586;12.854;2023-01-15T08:28:01;20.50;;;15.43;;
14599;SDS011;7386;45.586;12.854;2023-01-15T08:30:30;19.43;;;15.83;;
14599;SDS011;7386;45.586;12.854;2023-01-15T08:32:58;16.27;;;13.30;;
14599;SDS011;7386;45.586;12.854;2023-01-15T08:35:28;18.93;;;15.10;;
14599;SDS011;7386;45.586;12.854;2023-01-15T08:37:57;21.20;;;15.87;;
14599;SDS011;7386;45.586;12.854;2023-01-15T08:40:26;17.77;;;13.33;;
14599;SDS011;7386;45.586;12.854;2023-01-15T08:42:55;18.13;;;14.13;;
14599;SDS011;7386;45.586;12.854;2023-01-15T08:45:23;18.10;;;14.23;;
14599;SDS011;7386;45.586;12.854;2023-01-15T08:47:53;14.57;;;11.47;;
14599;SDS011;7386;45.586;12.854;2023-01-15T08:50:23;14.53;;;12.37;;
14599;SDS011;7386;45.586;12.854;2023-01-15T08:52:52;18.53;;;13.63;;
14599;SDS011;7386;45.586;12.854;2023-01-15T08:55:20;13.47;;;10.67;;
14599;SDS011;7386;45.586;12.854;2023-01-15T08:57:50;18.10;;;14.23;;
14599;SDS011;7386;45.586;12.854;2023-01-15T09:00:19;16.13;;;13.00;;
14599;SDS011;7386;45.586;12.854;2023-01-15T09:02:47;13.77;;;11.10;;
14599;SDS011;7386;45.586;12.854;2023-01-15T09:05:16;17.43;;;13.00;;
14599;SDS011;7386;45.586;12.854;2023-01-15T09:07:44;15.20;;;12.00;;
14599;SDS011;7386;45.586;12.854;2023-01-15T09:10:13;13.50;;;11.40;;
14599;SDS011;7386;45.586;12.854;2023-01-15T09:12:42;14.27;;;11.90;;
14599;SDS011;7386;45.586;12.854;2023-01-15T09:15:12;15.40;;;11.80;;
14599;SDS011;7386;45.586;12.854;2023-01-15T09:17:40;12.87;;;9.93;;
14599;SDS011;7386;45.586;12.854;2023-01-15T09:20:10;14.67;;;11.53;;
14599;SDS011;7386;45.586;12.854;2023-01-15T09:22:39;13.67;;;11.13;;
14599;SDS011;7386;45.586;12.854;2023-01-15T09:25:07;15.60;;;12.00;;
14599;SDS011;7386;45.586;12.854;2023-01-15T09:27:36;16.83;;;14.40;;
14599;SDS011;7386;45.586;12.854;2023-01-15T09:30:05;13.73;;;11.60;;
14599;SDS011;7386;45.586;12.854;2023-01-15T09:32:35;15.90;;;12.77;;
14599;SDS011;7386;45.586;12.854;2023-01-15T09:35:04;19.20;;;15.00;;
14599;SDS011;7386;45.586;12.854;2023-01-15T09:37:32;16.00;;;12.77;;
14599;SDS011;7386;45.586;12.854;2023-01-15T09:40:01;16.27;;;13.27;;
14599;SDS011;7386;45.586;12.854;2023-01-15T09:42:34;17.27;;;14.37;;
14599;SDS011;7386;45.586;12.854;2023-01-15T09:45:17;15.53;;;11.90;;
14599;SDS011;7386;45.586;12.854;2023-01-15T09:47:58;17.77;;;13.47;;
14599;SDS011;7386;45.586;12.854;2023-01-15T09:50:34;18.93;;;14.30;;
14599;SDS011;7386;45.586;12.854;2023-01-15T09:55:54;17.40;;;13.73;;
14599;SDS011;7386;45.586;12.854;2023-01-15T09:58:25;18.63;;;13.73;;
14599;SDS011;7386;45.586;12.854;2023-01-15T10:00:59;14.67;;;10.93;;
14599;SDS011;7386;45.586;12.854;2023-01-15T10:03:30;18.87;;;14.07;;
14599;SDS011;7386;45.586;12.854;2023-01-15T10:06:03;15.77;;;13.23;;
14599;SDS011;7386;45.586;12.854;2023-01-15T10:08:35;14.47;;;11.83;;
14599;SDS011;7386;45.586;12.854;2023-01-15T10:11:10;18.13;;;14.13;;
14599;SDS011;7386;45.586;12.854;2023-01-15T10:13:44;13.10;;;11.00;;
14599;SDS011;7386;45.586;12.854;2023-01-15T10:16:17;15.30;;;12.33;;
14599;SDS011;7386;45.586;12.854;2023-01-15T10:18:47;16.07;;;13.37;;
14599;SDS011;7386;45.586;12.854;2023-01-15T10:21:19;16.33;;;12.10;;
14599;SDS011;7386;45.586;12.854;2023-01-15T10:23:50;16.40;;;12.83;;
14599;SDS011;7386;45.586;12.854;2023-01-15T10:26:27;18.50;;;13.87;;
14599;SDS011;7386;45.586;12.854;2023-01-15T10:28:59;15.10;;;11.77;;
14599;SDS011;7386;45.586;12.854;2023-01-15T10:31:36;20.63;;;15.10;;
14599;SDS011;7386;45.586;12.854;2023-01-15T10:34:18;23.67;;;16.63;;
14599;SDS011;7386;45.586;12.854;2023-01-15T10:36:50;17.90;;;14.37;;
14599;SDS011;7386;45.586;12.854;2023-01-15T10:39:22;23.60;;;19.13;;
14599;SDS011;7386;45.586;12.854;2023-01-15T10:41:56;21.70;;;18.13;;
14599;SDS011;7386;45.586;12.854;2023-01-15T10:44:31;20.10;;;15.07;;
14599;SDS011;7386;45.586;12.854;2023-01-15T10:47:06;23.30;;;17.10;;
14599;SDS011;7386;45.586;12.854;2023-01-15T10:49:39;22.97;;;16.30;;
14599;SDS011;7386;45.586;12.854;2023-01-15T10:52:12;18.63;;;15.33;;
14599;SDS011;7386;45.586;12.854;2023-01-15T10:54:45;22.23;;;17.70;;
14599;SDS011;7386;45.586;12.854;2023-01-15T10:57:16;17.33;;;15.03;;
14599;SDS011;7386;45.586;12.854;2023-01-15T10:59:48;16.27;;;14.30;;
14599;SDS011;7386;45.586;12.854;2023-01-15T11:02:20;23.80;;;18.40;;
14599;SDS011;7386;45.586;12.854;2023-01-15T11:04:51;29.20;;;17.10;;
14599;SDS011;7386;45.586;12.854;2023-01-15T11:07:20;21.60;;;16.73;;
14599;SDS011;7386;45.586;12.854;2023-01-15T11:09:49;24.60;;;19.00;;
14599;SDS011;7386;45.586;12.854;2023-01-15T11:12:19;23.17;;;16.90;;
14599;SDS011;7386;45.586;12.854;2023-01-15T11:15:15;22.47;;;18.07;;
14599;SDS011;7386;45.586;12.854;2023-01-15T11:18:01;25.47;;;19.43;;
14599;SDS011;7386;45.586;12.854;2023-01-15T11:20:49;22.23;;;16.83;;
14599;SDS011;7386;45.586;12.854;2023-01-15T11:23:18;21.17;;;17.47;;
14599;SDS011;7386;45.586;12.854;2023-01-15T11:25:49;20.67;;;16.87;;
14599;SDS011;7386;45.586;12.854;2023-01-15T11:28:28;25.27;;;16.00;;
14599;SDS011;7386;45.586;12.854;2023-01-15T11:30:57;23.40;;;18.27;;
14599;SDS011;7386;45.586;12.854;2023-01-15T11:33:26;20.73;;;16.77;;
14599;SDS011;7386;45.586;12.854;2023-01-15T11:35:57;21.90;;;17.27;;
14599;SDS011;7386;45.586;12.854;2023-01-15T11:38:26;24.00;;;18.77;;
14599;SDS011;7386;45.586;12.854;2023-01-15T11:40:56;18.57;;;14.53;;
14599;SDS011;7386;45.586;12.854;2023-01-15T11:43:26;23.23;;;18.63;;
14599;SDS011;7386;45.586;12.854;2023-01-15T11:46:22;19.80;;;15.97;;
14599;SDS011;7386;45.586;12.854;2023-01-15T11:49:09;21.57;;;16.90;;
14599;SDS011;7386;45.586;12.854;2023-01-15T11:51:57;20.37;;;17.10;;
14599;SDS011;7386;45.586;12.854;2023-01-15T11:54:25;17.60;;;14.67;;
14599;SDS011;7386;45.586;12.854;2023-01-15T11:56:54;22.23;;;17.60;;
14599;SDS011;7386;45.586;12.854;2023-01-15T11:59:23;23.30;;;19.23;;
14599;SDS011;7386;45.586;12.854;2023-01-15T12:01:52;18.77;;;14.50;;
14599;SDS011;7386;45.586;12.854;2023-01-15T12:04:26;23.70;;;18.67;;
14599;SDS011;7386;45.586;12.854;2023-01-15T12:06:58;23.50;;;18.83;;
14599;SDS011;7386;45.586;12.854;2023-01-15T12:09:30;19.13;;;15.17;;
14599;SDS011;7386;45.586;12.854;2023-01-15T12:12:06;24.20;;;20.23;;
14599;SDS011;7386;45.586;12.854;2023-01-15T12:14:44;20.27;;;16.27;;
14599;SDS011;7386;45.586;12.854;2023-01-15T12:20:06;26.40;;;20.23;;
14599;SDS011;7386;45.586;12.854;2023-01-15T12:22:44;23.33;;;18.27;;
14599;SDS011;7386;45.586;12.854;2023-01-15T12:25:18;23.40;;;19.63;;
14599;SDS011;7386;45.586;12.854;2023-01-15T12:27:51;25.57;;;19.63;;
14599;SDS011;7386;45.586;12.854;2023-01-15T12:30:24;21.03;;;15.87;;
14599;SDS011;7386;45.586;12.854;2023-01-15T12:32:57;26.73;;;20.80;;
14599;SDS011;7386;45.586;12.854;2023-01-15T12:35:28;21.90;;;16.90;;
14599;SDS011;7386;45.586;12.854;2023-01-15T12:38:00;22.03;;;17.63;;
14599;SDS011;7386;45.586;12.854;2023-01-15T12:40:32;27.43;;;20.60;;
14599;SDS011;7386;45.586;12.854;2023-01-15T12:43:07;22.17;;;17.10;;
14599;SDS011;7386;45.586;12.854;2023-01-15T12:45:57;25.40;;;20.07;;
14599;SDS011;7386;45.586;12.854;2023-01-15T12:48:28;30.50;;;21.20;;
14599;SDS011;7386;45.586;12.854;2023-01-15T12:50:59;27.80;;;22.80;;
14599;SDS011;7386;45.586;12.854;2023-01-15T12:53:33;32.37;;;25.90;;
14599;SDS011;7386;45.586;12.854;2023-01-15T12:56:06;31.40;;;24.43;;
14599;SDS011;7386;45.586;12.854;2023-01-15T12:58:41;32.87;;;25.50;;
14599;SDS011;7386;45.586;12.854;2023-01-15T13:01:12;36.37;;;28.03;;
14599;SDS011;7386;45.586;12.854;2023-01-15T13:03:48;30.57;;;23.50;;
14599;SDS011;7386;45.586;12.854;2023-01-15T13:06:18;37.27;;;28.27;;
14599;SDS011;7386;45.586;12.854;2023-01-15T13:08:53;36.80;;;29.43;;
14599;SDS011;7386;45.586;12.854;2023-01-15T13:11:23;31.83;;;24.03;;
14599;SDS011;7386;45.586;12.854;2023-01-15T13:13:52;39.40;;;29.40;;
14599;SDS011;7386;45.586;12.854;2023-01-15T13:16:35;35.43;;;26.10;;
14599;SDS011;7386;45.586;12.854;2023-01-15T13:19:12;30.90;;;24.70;;
14599;SDS011;7386;45.586;12.854;2023-01-15T13:21:41;39.83;;;30.33;;
14599;SDS011;7386;45.586;12.854;2023-01-15T13:24:17;37.77;;;29.23;;
14599;SDS011;7386;45.586;12.854;2023-01-15T13:26:56;41.57;;;30.30;;
14599;SDS011;7386;45.586;12.854;2023-01-15T13:29:32;39.10;;;30.50;;
14599;SDS011;7386;45.586;12.854;2023-01-15T13:32:05;31.80;;;25.03;;
14599;SDS011;7386;45.586;12.854;2023-01-15T13:34:36;37.57;;;27.87;;
14599;SDS011;7386;45.586;12.854;2023-01-15T13:37:08;35.00;;;28.00;;
14599;SDS011;7386;45.586;12.854;2023-01-15T13:39:41;36.07;;;26.20;;
14599;SDS011;7386;45.586;12.854;2023-01-15T13:42:14;40.93;;;30.00;;
14599;SDS011;7386;45.586;12.854;2023-01-15T13:44:58;33.70;;;26.97;;
14599;SDS011;7386;45.586;12.854;2023-01-15T13:47:29;33.83;;;26.73;;
14599;SDS011;7386;45.586;12.854;2023-01-15T13:49:59;33.03;;;25.53;;
14599;SDS011;7386;45.586;12.854;2023-01-15T13:52:29;31.27;;;25.47;;
14599;SDS011;7386;45.586;12.854;2023-01-15T13:55:00;31.97;;;24.73;;
14599;SDS011;7386;45.586;12.854;2023-01-15T13:57:35;36.20;;;25.00;;
14599;SDS011;7386;45.586;12.854;2023-01-15T14:00:06;31.07;;;22.70;;
14599;SDS011;7386;45.586;12.854;2023-01-15T14:02:36;30.40;;;24.67;;
14599;SDS011;7386;45.586;12.854;2023-01-15T14:05:17;29.60;;;23.97;;
14599;SDS011;7386;45.586;12.854;2023-01-15T14:07:51;28.10;;;22.00;;
14599;SDS011;7386;45.586;12.854;2023-01-15T14:10:24;28.70;;;23.23;;
14599;SDS011;7386;45.586;12.854;2023-01-15T14:12:57;28.17;;;22.20;;
14599;SDS011;7386;45.586;12.854;2023-01-15T14:15:34;27.90;;;22.07;;
14599;SDS011;7386;45.586;12.854;2023-01-15T14:20:59;27.03;;;20.90;;
14599;SDS011;7386;45.586;12.854;2023-01-15T14:23:37;26.90;;;21.80;;
14599;SDS011;7386;45.586;12.854;2023-01-15T14:26:13;28.40;;;22.93;;
14599;SDS011;7386;45.586;12.854;2023-01-15T14:28:51;24.47;;;19.50;;
14599;SDS011;7386;45.586;12.854;2023-01-15T14:31:32;27.87;;;22.00;;
14599;SDS011;7386;45.586;12.854;2023-01-15T14:34:11;25.90;;;20.40;;
14599;SDS011;7386;45.586;12.854;2023-01-15T14:36:45;24.97;;;20.27;;
14599;SDS011;7386;45.586;12.854;2023-01-15T14:39:24;31.47;;;23.60;;
14599;SDS011;7386;45.586;12.854;2023-01-15T14:41:56;22.73;;;19.40;;
14599;SDS011;7386;45.586;12.854;2023-01-15T14:44:43;30.43;;;22.63;;
14599;SDS011;7386;45.586;12.854;2023-01-15T14:47:19;30.23;;;23.23;;
14599;SDS011;7386;45.586;12.854;2023-01-15T14:49:58;23.73;;;19.63;;
14599;SDS011;7386;45.586;12.854;2023-01-15T14:52:27;28.30;;;22.50;;
14599;SDS011;7386;45.586;12.854;2023-01-15T14:54:55;28.87;;;22.93;;
14599;SDS011;7386;45.586;12.854;2023-01-15T14:57:27;26.93;;;21.23;;
14599;SDS011;7386;45.586;12.854;2023-01-15T14:59:56;31.67;;;23.83;;